Flight Track Log - Related Links

Times and Time Zones

All times are in EST time to prevent confusion due to time zone crossing. See the CXA8232 flight status page for this flight to view local times or setup timezone preferences in your user account.

Time Position Orientation Groundspeed Altitude Reporting Facility
EST Latitude Longitude Course Direction KTS MPH feet Rate Location/Type
Mon 08:34:00 AM 35.8849 117.7225 157° South  Level Estimated
Mon 08:35:00 AM 35.7769 117.7781 157° South  Level Estimated
Mon 08:36:00 AM 35.6687 117.8334 157° South  Level Estimated
Mon 08:37:00 AM 35.5606 117.8886 157° South  Level Estimated
Mon 08:38:00 AM 35.4524 117.9437 157° South  Level Estimated
Mon 08:39:00 AM 35.3442 117.9986 158° South  Level Estimated
Mon 08:40:00 AM 35.2360 118.0534 158° South  Level Estimated
Mon 08:41:00 AM 35.1278 118.1080 158° South  Level Estimated
Mon 08:42:00 AM 35.0195 118.1625 158° South  Level Estimated
Mon 08:43:00 AM 34.9113 118.2168 158° South  Level Estimated
Mon 08:44:00 AM 34.8029 118.2710 158° South  Level Estimated
Mon 08:45:00 AM 34.6946 118.3251 158° South  Level Estimated
Mon 08:46:00 AM 34.5863 118.3790 158° South  Level Estimated
Mon 08:47:00 AM 34.4779 118.4327 158° South  Level Estimated
Mon 08:48:00 AM 34.3695 118.4864 158° South  Level Estimated
Mon 08:49:00 AM 34.2610 118.5398 158° South  Level Estimated
Mon 08:50:00 AM 34.1526 118.5932 158° South  Level Estimated
Mon 08:51:00 AM 34.0441 118.6464 158° South  Level Estimated
Mon 08:52:00 AM 33.9356 118.6995 158° South  Level Estimated
Mon 08:53:00 AM 33.8271 118.7524 158° South  Level Estimated
Mon 08:54:00 AM 33.7185 118.8052 158° South  Level Estimated
Mon 08:55:00 AM 33.6100 118.8579 158° South  Level Estimated
Mon 08:56:00 AM 33.5014 118.9105 158° South  Level Estimated
Mon 08:57:00 AM 33.3928 118.9629 158° South  Level Estimated
Mon 08:58:00 AM 33.2841 119.0151 158° South  Level Estimated
Mon 08:59:00 AM 33.1755 119.0673 158° South  Level Estimated
Mon 09:00:00 AM 33.0668 119.1193 158° South  Level Estimated
Mon 09:01:00 AM 32.9581 119.1712 158° South  Level Estimated
Mon 09:02:00 AM 32.8494 119.2230 158° South  Level Estimated
Mon 09:03:00 AM 32.7407 119.2746 158° South  Level Estimated
Mon 09:04:00 AM 32.6319 119.3261 158° South  Level Estimated
Mon 09:05:00 AM 32.5231 119.3775 158° South  Level Estimated
Mon 09:06:00 AM 32.4143 119.4288 158° South  Level Estimated
Mon 09:07:00 AM 32.3055 119.4799 158° South  Level Estimated
Mon 09:08:00 AM 32.1967 119.5309 158° South  Level Estimated
Mon 09:09:00 AM 32.0878 119.5818 158° South  Level Estimated
Mon 09:10:00 AM 31.9789 119.6326 158° South  Level Estimated
Mon 09:11:00 AM 31.8700 119.6832 158° South  Level Estimated
Mon 09:12:00 AM 31.7611 119.7338 158° South  Level Estimated
Mon 09:13:00 AM 31.6521 119.7842 158° South  Level Estimated
Mon 09:14:00 AM 31.5432 119.8345 159° South  Level Estimated
Mon 09:15:00 AM 31.4342 119.8847 159° South  Level Estimated
Mon 09:16:00 AM 31.3252 119.9347 159° South  Level Estimated
Mon 09:17:00 AM 31.2162 119.9847 159° South  Level Estimated
Mon 09:18:00 AM 31.1071 120.0345 159° South  Level Estimated
Mon 09:19:00 AM 30.9981 120.0842 159° South  Level Estimated
Mon 09:20:00 AM 30.8890 120.1338 159° South  Level Estimated
Mon 09:21:00 AM 30.7799 120.1833 159° South  Level Estimated
Mon 09:22:00 AM 30.6708 120.2327 159° South  Level Estimated
Mon 09:23:00 AM 30.5616 120.2820 159° South  Level Estimated
Mon 09:24:00 AM 30.4525 120.3311 159° South  Level Estimated
Mon 09:25:00 AM 30.3433 120.3801 159° South  Level Estimated
Mon 09:26:00 AM 30.2341 120.4291 159° South  Level Estimated
Mon 09:27:00 AM 30.2283 120.4317 159° South  Level Estimated
Mon 09:28:00 AM 30.2283 120.4317 319° Northwest  Level Estimated
Mon 09:29:00 AM 30.2283 120.4317 319° Northwest  Level Estimated
Mon 09:30:00 AM 30.2283 120.4317 319° Northwest  Level Estimated
Mon 09:31:00 AM 30.2283 120.4317 319° Northwest  Level Estimated
Mon 09:32:00 AM 30.2283 120.4317 319° Northwest  Level Estimated
Mon 09:33:00 AM 30.2283 120.4317 319° Northwest  Level Estimated
Mon 09:34:00 AM 30.2283 120.4317 319° Northwest  Level Estimated
Mon 09:35:00 AM 30.2283 120.4317 319° Northwest  Level Estimated
Mon 09:36:00 AM 30.2283 120.4317 319° Northwest  Level Estimated
Mon 09:37:00 AM 30.2283 120.4317 319° Northwest  Level Estimated
Mon 09:38:00 AM 30.2283 120.4317 319° Northwest  Level Estimated
Mon 09:39:00 AM 30.2283 120.4317 319° Northwest  Level Estimated
Mon 09:40:00 AM 30.2283 120.4317 319° Northwest  Level Estimated
Mon 09:41:00 AM 30.2283 120.4317 319° Northwest  Level Estimated
Mon 09:42:00 AM 30.2283 120.4317 319° Northwest  Level Estimated

Login

Don't have an account? Register now (free) for customized features, flight alerts, and more!